sensor_id;sensor_type;location;lat;lon;timestamp;pressure;altitude;pressure_sealevel;temperature;humidity
51053;BME280;37093;37.716;-122.060;2022-08-23T00:02:01;99871.48;;;32.67;25.69
51053;BME280;37093;37.716;-122.060;2022-08-23T00:04:32;99867.87;;;32.21;26.13
51053;BME280;37093;37.716;-122.060;2022-08-23T00:07:01;99867.98;;;32.40;26.26
51053;BME280;37093;37.716;-122.060;2022-08-23T00:09:30;99867.80;;;32.28;26.37
51053;BME280;37093;37.716;-122.060;2022-08-23T00:12:09;99865.64;;;32.39;26.17
51053;BME280;37093;37.716;-122.060;2022-08-23T00:14:40;99868.93;;;32.13;26.77
51053;BME280;37093;37.716;-122.060;2022-08-23T00:17:10;99868.79;;;32.11;26.65
51053;BME280;37093;37.716;-122.060;2022-08-23T00:19:39;99868.51;;;32.00;26.60
51053;BME280;37093;37.716;-122.060;2022-08-23T00:22:08;99863.31;;;31.75;26.45
51053;BME280;37093;37.716;-122.060;2022-08-23T00:24:37;99858.77;;;32.17;26.63
51053;BME280;37093;37.716;-122.060;2022-08-23T00:27:09;99852.90;;;32.28;26.58
51053;BME280;37093;37.716;-122.060;2022-08-23T00:29:41;99849.91;;;32.33;26.63
51053;BME280;37093;37.716;-122.060;2022-08-23T00:32:14;99854.86;;;32.01;26.75
51053;BME280;37093;37.716;-122.060;2022-08-23T00:34:43;99849.24;;;32.32;26.68
51053;BME280;37093;37.716;-122.060;2022-08-23T00:37:12;99849.24;;;32.15;27.12
51053;BME280;37093;37.716;-122.060;2022-08-23T00:39:41;99845.35;;;32.11;27.25
51053;BME280;37093;37.716;-122.060;2022-08-23T00:42:13;99845.96;;;32.02;27.28
51053;BME280;37093;37.716;-122.060;2022-08-23T00:44:42;99845.21;;;32.00;27.48
51053;BME280;37093;37.716;-122.060;2022-08-23T00:47:12;99842.21;;;31.92;27.66
51053;BME280;37093;37.716;-122.060;2022-08-23T00:49:44;99841.81;;;31.73;27.95
51053;BME280;37093;37.716;-122.060;2022-08-23T00:52:23;99838.17;;;31.55;28.32
51053;BME280;37093;37.716;-122.060;2022-08-23T00:54:54;99838.80;;;30.91;28.97
51053;BME280;37093;37.716;-122.060;2022-08-23T00:57:22;99837.92;;;31.74;28.23
51053;BME280;37093;37.716;-122.060;2022-08-23T00:59:51;99836.73;;;31.57;28.23
51053;BME280;37093;37.716;-122.060;2022-08-23T01:02:19;99836.69;;;31.85;28.08
51053;BME280;37093;37.716;-122.060;2022-08-23T01:04:50;99837.32;;;31.27;28.22
51053;BME280;37093;37.716;-122.060;2022-08-23T01:07:30;99837.21;;;31.72;28.13
51053;BME280;37093;37.716;-122.060;2022-08-23T01:10:02;99846.59;;;31.08;28.37
51053;BME280;37093;37.716;-122.060;2022-08-23T01:12:36;99843.53;;;31.29;28.57
51053;BME280;37093;37.716;-122.060;2022-08-23T01:15:13;99843.06;;;30.88;28.48
51053;BME280;37093;37.716;-122.060;2022-08-23T01:17:47;99837.82;;;31.27;28.58
51053;BME280;37093;37.716;-122.060;2022-08-23T01:20:19;99839.96;;;31.02;28.79
51053;BME280;37093;37.716;-122.060;2022-08-23T01:22:58;99843.61;;;31.23;28.73
51053;BME280;37093;37.716;-122.060;2022-08-23T01:25:29;99845.13;;;30.57;29.20
51053;BME280;37093;37.716;-122.060;2022-08-23T01:27:58;99846.99;;;30.77;29.10
51053;BME280;37093;37.716;-122.060;2022-08-23T01:30:29;99845.48;;;30.72;29.04
51053;BME280;37093;37.716;-122.060;2022-08-23T01:33:00;99841.22;;;30.71;29.21
51053;BME280;37093;37.716;-122.060;2022-08-23T01:35:37;99844.38;;;30.49;29.44
51053;BME280;37093;37.716;-122.060;2022-08-23T01:38:06;99840.75;;;30.52;29.54
51053;BME280;37093;37.716;-122.060;2022-08-23T01:40:36;99842.37;;;30.67;29.71
51053;BME280;37093;37.716;-122.060;2022-08-23T01:43:05;99836.63;;;30.21;30.03
51053;BME280;37093;37.716;-122.060;2022-08-23T01:45:34;99830.62;;;30.16;30.02
51053;BME280;37093;37.716;-122.060;2022-08-23T01:48:04;99829.28;;;30.16;30.01
51053;BME280;37093;37.716;-122.060;2022-08-23T01:50:32;99827.23;;;30.19;30.07
51053;BME280;37093;37.716;-122.060;2022-08-23T01:53:00;99827.98;;;30.30;30.52
51053;BME280;37093;37.716;-122.060;2022-08-23T01:55:28;99824.76;;;29.61;31.12
51053;BME280;37093;37.716;-122.060;2022-08-23T01:57:59;99823.33;;;29.86;31.11
51053;BME280;37093;37.716;-122.060;2022-08-23T02:00:30;99821.78;;;29.96;30.92
51053;BME280;37093;37.716;-122.060;2022-08-23T02:03:00;99819.38;;;29.77;30.83
51053;BME280;37093;37.716;-122.060;2022-08-23T02:05:29;99820.03;;;29.66;30.94
51053;BME280;37093;37.716;-122.060;2022-08-23T02:07:58;99822.84;;;29.86;30.89
51053;BME280;37093;37.716;-122.060;2022-08-23T02:10:26;99819.50;;;29.44;31.32
51053;BME280;37093;37.716;-122.060;2022-08-23T02:12:55;99823.63;;;29.29;31.55
51053;BME280;37093;37.716;-122.060;2022-08-23T02:15:24;99825.75;;;29.18;31.55
51053;BME280;37093;37.716;-122.060;2022-08-23T02:17:53;99824.57;;;29.24;31.66
51053;BME280;37093;37.716;-122.060;2022-08-23T02:20:21;99827.78;;;29.44;31.69
51053;BME280;37093;37.716;-122.060;2022-08-23T02:22:49;99827.92;;;29.48;31.55
51053;BME280;37093;37.716;-122.060;2022-08-23T02:25:18;99824.67;;;28.99;31.90
51053;BME280;37093;37.716;-122.060;2022-08-23T02:27:47;99821.57;;;29.07;32.06
51053;BME280;37093;37.716;-122.060;2022-08-23T02:30:15;99822.13;;;28.98;32.27
51053;BME280;37093;37.716;-122.060;2022-08-23T02:32:44;99819.51;;;28.95;32.35
51053;BME280;37093;37.716;-122.060;2022-08-23T02:35:12;99815.89;;;28.78;32.74
51053;BME280;37093;37.716;-122.060;2022-08-23T02:37:40;99819.46;;;28.88;32.69
51053;BME280;37093;37.716;-122.060;2022-08-23T02:40:10;99818.04;;;28.61;33.01
51053;BME280;37093;37.716;-122.060;2022-08-23T02:42:38;99818.49;;;28.56;33.04
51053;BME280;37093;37.716;-122.060;2022-08-23T02:45:08;99818.11;;;28.48;33.16
51053;BME280;37093;37.716;-122.060;2022-08-23T02:47:37;99818.72;;;28.24;33.22
51053;BME280;37093;37.716;-122.060;2022-08-23T02:50:12;99820.26;;;28.07;33.40
51053;BME280;37093;37.716;-122.060;2022-08-23T02:52:40;99820.71;;;28.23;33.41
51053;BME280;37093;37.716;-122.060;2022-08-23T02:55:10;99819.02;;;28.12;33.54
51053;BME280;37093;37.716;-122.060;2022-08-23T02:57:38;99816.17;;;27.99;33.52
51053;BME280;37093;37.716;-122.060;2022-08-23T03:00:09;99816.54;;;28.00;33.45
51053;BME280;37093;37.716;-122.060;2022-08-23T03:02:38;99818.64;;;28.20;33.44
51053;BME280;37093;37.716;-122.060;2022-08-23T03:05:09;99822.55;;;27.80;33.89
51053;BME280;37093;37.716;-122.060;2022-08-23T03:07:39;99822.86;;;27.30;34.04
51053;BME280;37093;37.716;-122.060;2022-08-23T03:10:09;99820.88;;;27.55;33.85
51053;BME280;37093;37.716;-122.060;2022-08-23T03:12:38;99823.89;;;27.43;34.25
51053;BME280;37093;37.716;-122.060;2022-08-23T03:15:07;99827.95;;;27.42;34.14
51053;BME280;37093;37.716;-122.060;2022-08-23T03:17:37;99832.22;;;27.00;35.21
51053;BME280;37093;37.716;-122.060;2022-08-23T03:20:07;99833.27;;;26.78;35.78
51053;BME280;37093;37.716;-122.060;2022-08-23T03:22:35;99828.03;;;27.00;35.45
51053;BME280;37093;37.716;-122.060;2022-08-23T03:25:05;99831.15;;;27.34;35.30
51053;BME280;37093;37.716;-122.060;2022-08-23T03:27:34;99828.31;;;27.04;35.13
51053;BME280;37093;37.716;-122.060;2022-08-23T03:30:03;99831.77;;;26.89;35.51
51053;BME280;37093;37.716;-122.060;2022-08-23T03:32:32;99833.25;;;26.91;35.90
51053;BME280;37093;37.716;-122.060;2022-08-23T03:35:00;99835.34;;;26.41;36.22
51053;BME280;37093;37.716;-122.060;2022-08-23T03:37:29;99840.29;;;26.97;36.19
51053;BME280;37093;37.716;-122.060;2022-08-23T03:39:57;99841.73;;;26.79;36.58
51053;BME280;37093;37.716;-122.060;2022-08-23T03:42:26;99838.34;;;26.70;36.21
51053;BME280;37093;37.716;-122.060;2022-08-23T03:44:54;99833.65;;;26.93;36.15
51053;BME280;37093;37.716;-122.060;2022-08-23T03:47:23;99834.95;;;26.82;35.96
51053;BME280;37093;37.716;-122.060;2022-08-23T03:49:51;99833.20;;;26.53;35.96
51053;BME280;37093;37.716;-122.060;2022-08-23T03:52:20;99831.34;;;26.64;36.31
51053;BME280;37093;37.716;-122.060;2022-08-23T03:54:49;99834.67;;;26.54;36.56
51053;BME280;37093;37.716;-122.060;2022-08-23T03:57:18;99835.97;;;26.51;36.76
51053;BME280;37093;37.716;-122.060;2022-08-23T03:59:46;99835.04;;;26.57;36.54
51053;BME280;37093;37.716;-122.060;2022-08-23T04:02:15;99832.51;;;26.71;36.86
51053;BME280;37093;37.716;-122.060;2022-08-23T04:04:43;99828.98;;;26.66;36.83
51053;BME280;37093;37.716;-122.060;2022-08-23T04:07:14;99828.10;;;26.66;36.80
51053;BME280;37093;37.716;-122.060;2022-08-23T04:09:44;99831.17;;;26.42;37.03
51053;BME280;37093;37.716;-122.060;2022-08-23T04:12:13;99828.12;;;26.41;36.91
51053;BME280;37093;37.716;-122.060;2022-08-23T04:14:43;99830.33;;;26.40;36.73
51053;BME280;37093;37.716;-122.060;2022-08-23T04:17:12;99826.58;;;26.55;37.14
51053;BME280;37093;37.716;-122.060;2022-08-23T04:19:41;99827.42;;;26.25;37.17
51053;BME280;37093;37.716;-122.060;2022-08-23T04:22:12;99827.98;;;26.34;36.94
51053;BME280;37093;37.716;-122.060;2022-08-23T04:24:41;99827.29;;;26.30;36.97
51053;BME280;37093;37.716;-122.060;2022-08-23T04:27:11;99827.88;;;26.18;36.91
51053;BME280;37093;37.716;-122.060;2022-08-23T04:29:40;99825.11;;;26.13;37.27
51053;BME280;37093;37.716;-122.060;2022-08-23T04:32:09;99830.10;;;26.26;37.02
51053;BME280;37093;37.716;-122.060;2022-08-23T04:34:38;99831.68;;;26.18;36.81
51053;BME280;37093;37.716;-122.060;2022-08-23T04:37:06;99831.59;;;26.06;37.27
51053;BME280;37093;37.716;-122.060;2022-08-23T04:39:35;99828.64;;;26.32;37.35
51053;BME280;37093;37.716;-122.060;2022-08-23T04:42:04;99829.29;;;26.13;37.24
51053;BME280;37093;37.716;-122.060;2022-08-23T04:44:32;99827.87;;;25.91;37.16
51053;BME280;37093;37.716;-122.060;2022-08-23T04:47:01;99828.45;;;26.04;37.20
51053;BME280;37093;37.716;-122.060;2022-08-23T04:49:29;99828.57;;;26.27;37.23
51053;BME280;37093;37.716;-122.060;2022-08-23T04:51:58;99827.45;;;26.08;37.31
51053;BME280;37093;37.716;-122.060;2022-08-23T04:54:27;99826.65;;;26.00;37.51
51053;BME280;37093;37.716;-122.060;2022-08-23T04:56:56;99826.84;;;25.98;37.59
51053;BME280;37093;37.716;-122.060;2022-08-23T04:59:24;99825.79;;;26.41;37.63
51053;BME280;37093;37.716;-122.060;2022-08-23T05:01:53;99827.81;;;26.13;37.72
51053;BME280;37093;37.716;-122.060;2022-08-23T05:04:21;99829.23;;;25.92;37.79
51053;BME280;37093;37.716;-122.060;2022-08-23T05:06:50;99828.57;;;25.92;38.01
51053;BME280;37093;37.716;-122.060;2022-08-23T05:09:18;99828.09;;;25.58;37.88
51053;BME280;37093;37.716;-122.060;2022-08-23T05:11:47;99827.80;;;25.76;38.21
51053;BME280;37093;37.716;-122.060;2022-08-23T05:14:15;99823.84;;;25.74;38.00
51053;BME280;37093;37.716;-122.060;2022-08-23T05:16:44;99821.87;;;25.69;38.13
51053;BME280;37093;37.716;-122.060;2022-08-23T05:19:12;99818.97;;;25.73;37.91
51053;BME280;37093;37.716;-122.060;2022-08-23T05:21:42;99819.08;;;25.71;37.97
51053;BME280;37093;37.716;-122.060;2022-08-23T05:24:11;99818.68;;;25.99;37.89
51053;BME280;37093;37.716;-122.060;2022-08-23T05:26:41;99813.33;;;25.72;38.32
51053;BME280;37093;37.716;-122.060;2022-08-23T05:29:09;99816.21;;;25.62;38.74
51053;BME280;37093;37.716;-122.060;2022-08-23T05:31:37;99814.80;;;25.36;38.77
51053;BME280;37093;37.716;-122.060;2022-08-23T05:34:06;99804.68;;;25.33;38.80
51053;BME280;37093;37.716;-122.060;2022-08-23T05:36:34;99804.43;;;25.59;38.61
51053;BME280;37093;37.716;-122.060;2022-08-23T05:39:03;99805.47;;;25.26;38.62
51053;BME280;37093;37.716;-122.060;2022-08-23T05:41:31;99803.15;;;25.50;38.98
51053;BME280;37093;37.716;-122.060;2022-08-23T05:44:00;99807.22;;;25.54;38.80
51053;BME280;37093;37.716;-122.060;2022-08-23T05:46:28;99808.45;;;25.36;39.01
51053;BME280;37093;37.716;-122.060;2022-08-23T05:48:56;99811.71;;;25.14;38.94
51053;BME280;37093;37.716;-122.060;2022-08-23T05:51:27;99811.49;;;25.15;38.99
51053;BME280;37093;37.716;-122.060;2022-08-23T05:53:59;99807.17;;;25.41;38.83
51053;BME280;37093;37.716;-122.060;2022-08-23T05:56:29;99805.56;;;25.23;39.45
51053;BME280;37093;37.716;-122.060;2022-08-23T05:59:00;99804.46;;;25.21;39.20
51053;BME280;37093;37.716;-122.060;2022-08-23T06:01:29;99803.00;;;25.24;39.16
51053;BME280;37093;37.716;-122.060;2022-08-23T06:03:59;99796.90;;;24.89;39.19
51053;BME280;37093;37.716;-122.060;2022-08-23T06:06:28;99790.40;;;25.12;39.29
51053;BME280;37093;37.716;-122.060;2022-08-23T06:08:57;99786.79;;;25.13;39.45
51053;BME280;37093;37.716;-122.060;2022-08-23T06:11:27;99785.20;;;25.09;39.53
51053;BME280;37093;37.716;-122.060;2022-08-23T06:13:57;99785.79;;;25.04;39.54
51053;BME280;37093;37.716;-122.060;2022-08-23T06:16:29;99783.39;;;24.84;39.84
51053;BME280;37093;37.716;-122.060;2022-08-23T06:18:59;99784.66;;;24.65;39.78
51053;BME280;37093;37.716;-122.060;2022-08-23T06:21:28;99783.50;;;24.75;39.89
51053;BME280;37093;37.716;-122.060;2022-08-23T06:23:58;99787.44;;;25.09;39.43
51053;BME280;37093;37.716;-122.060;2022-08-23T06:26:31;99787.64;;;24.91;39.56
51053;BME280;37093;37.716;-122.060;2022-08-23T06:29:02;99786.56;;;25.12;39.46
51053;BME280;37093;37.716;-122.060;2022-08-23T06:31:31;99788.18;;;24.80;39.18
51053;BME280;37093;37.716;-122.060;2022-08-23T06:33:59;99789.97;;;24.98;39.74
51053;BME280;37093;37.716;-122.060;2022-08-23T06:36:28;99784.21;;;24.84;40.07
51053;BME280;37093;37.716;-122.060;2022-08-23T06:38:57;99781.93;;;24.46;40.54
51053;BME280;37093;37.716;-122.060;2022-08-23T06:41:25;99781.51;;;24.67;40.20
51053;BME280;37093;37.716;-122.060;2022-08-23T06:43:54;99783.21;;;24.82;40.24
51053;BME280;37093;37.716;-122.060;2022-08-23T06:46:25;99779.96;;;24.84;39.97
51053;BME280;37093;37.716;-122.060;2022-08-23T06:48:54;99778.32;;;24.94;39.69
51053;BME280;37093;37.716;-122.060;2022-08-23T06:51:25;99775.57;;;24.97;39.79
51053;BME280;37093;37.716;-122.060;2022-08-23T06:53:55;99773.17;;;24.93;39.70
51053;BME280;37093;37.716;-122.060;2022-08-23T06:56:26;99773.86;;;24.84;39.70
51053;BME280;37093;37.716;-122.060;2022-08-23T06:58:56;99771.07;;;24.81;39.88
51053;BME280;37093;37.716;-122.060;2022-08-23T07:01:17;99765.42;;;23.84;39.73
51053;BME280;37093;37.716;-122.060;2022-08-23T07:03:46;99763.59;;;23.84;38.77
51053;BME280;37093;37.716;-122.060;2022-08-23T07:06:14;99764.98;;;25.26;37.33
51053;BME280;37093;37.716;-122.060;2022-08-23T07:08:43;99764.99;;;25.67;37.16
51053;BME280;37093;37.716;-122.060;2022-08-23T07:11:11;99762.46;;;25.59;37.82
51053;BME280;37093;37.716;-122.060;2022-08-23T07:13:40;99763.67;;;25.02;38.30
51053;BME280;37093;37.716;-122.060;2022-08-23T07:16:08;99763.27;;;24.97;38.51
51053;BME280;37093;37.716;-122.060;2022-08-23T07:18:37;99759.59;;;24.75;38.74
51053;BME280;37093;37.716;-122.060;2022-08-23T07:21:06;99756.31;;;24.62;38.90
51053;BME280;37093;37.716;-122.060;2022-08-23T07:23:34;99754.75;;;24.69;39.01
51053;BME280;37093;37.716;-122.060;2022-08-23T07:26:08;99758.09;;;24.70;38.94
51053;BME280;37093;37.716;-122.060;2022-08-23T07:28:38;99759.26;;;24.62;39.07
51053;BME280;37093;37.716;-122.060;2022-08-23T07:31:07;99756.34;;;24.54;39.53
51053;BME280;37093;37.716;-122.060;2022-08-23T07:33:36;99760.58;;;23.97;39.38
51053;BME280;37093;37.716;-122.060;2022-08-23T07:36:05;99756.61;;;24.44;39.54
51053;BME280;37093;37.716;-122.060;2022-08-23T07:38:36;99755.97;;;24.39;39.60
51053;BME280;37093;37.716;-122.060;2022-08-23T07:41:05;99754.44;;;24.18;39.75
51053;BME280;37093;37.716;-122.060;2022-08-23T07:43:34;99754.72;;;24.03;39.74
51053;BME280;37093;37.716;-122.060;2022-08-23T07:46:02;99758.09;;;24.22;39.71
51053;BME280;37093;37.716;-122.060;2022-08-23T07:48:31;99758.30;;;24.23;39.90
51053;BME280;37093;37.716;-122.060;2022-08-23T07:51:04;99754.31;;;23.97;39.80
51053;BME280;37093;37.716;-122.060;2022-08-23T07:53:33;99751.20;;;24.21;39.79
51053;BME280;37093;37.716;-122.060;2022-08-23T07:56:04;99756.34;;;24.02;40.28
51053;BME280;37093;37.716;-122.060;2022-08-23T07:58:33;99751.12;;;23.95;40.30
51053;BME280;37093;37.716;-122.060;2022-08-23T08:01:09;99750.60;;;24.33;40.12
51053;BME280;37093;37.716;-122.060;2022-08-23T08:03:38;99748.46;;;24.05;39.97
51053;BME280;37093;37.716;-122.060;2022-08-23T08:06:09;99745.98;;;24.04;40.20
51053;BME280;37093;37.716;-122.060;2022-08-23T08:08:37;99743.69;;;24.10;40.05
51053;BME280;37093;37.716;-122.060;2022-08-23T08:11:06;99743.39;;;24.10;39.75
51053;BME280;37093;37.716;-122.060;2022-08-23T08:13:34;99745.65;;;24.13;39.89
51053;BME280;37093;37.716;-122.060;2022-08-23T08:16:03;99742.88;;;24.08;39.81
51053;BME280;37093;37.716;-122.060;2022-08-23T08:18:32;99737.38;;;23.94;40.10
51053;BME280;37093;37.716;-122.060;2022-08-23T08:21:00;99737.99;;;23.90;40.14
51053;BME280;37093;37.716;-122.060;2022-08-23T08:23:29;99733.90;;;23.94;40.27
51053;BME280;37093;37.716;-122.060;2022-08-23T08:26:00;99735.70;;;23.88;40.34
51053;BME280;37093;37.716;-122.060;2022-08-23T08:28:30;99733.82;;;23.90;40.23
51053;BME280;37093;37.716;-122.060;2022-08-23T08:30:59;99730.07;;;23.46;40.37
51053;BME280;37093;37.716;-122.060;2022-08-23T08:33:28;99731.44;;;23.94;40.52
51053;BME280;37093;37.716;-122.060;2022-08-23T08:35:57;99734.48;;;24.05;40.73
51053;BME280;37093;37.716;-122.060;2022-08-23T08:38:25;99734.46;;;23.71;41.28
51053;BME280;37093;37.716;-122.060;2022-08-23T08:41:00;99729.16;;;23.74;40.81
51053;BME280;37093;37.716;-122.060;2022-08-23T08:43:36;99727.08;;;23.77;40.94
51053;BME280;37093;37.716;-122.060;2022-08-23T08:46:14;99724.50;;;23.70;40.87
51053;BME280;37093;37.716;-122.060;2022-08-23T08:48:49;99723.08;;;23.56;41.12
51053;BME280;37093;37.716;-122.060;2022-08-23T08:51:31;99724.11;;;23.82;41.74
51053;BME280;37093;37.716;-122.060;2022-08-23T08:54:05;99717.86;;;23.47;42.17
51053;BME280;37093;37.716;-122.060;2022-08-23T08:56:38;99715.58;;;23.11;41.54
51053;BME280;37093;37.716;-122.060;2022-08-23T08:59:09;99715.92;;;23.45;41.91
51053;BME280;37093;37.716;-122.060;2022-08-23T09:01:39;99712.24;;;23.14;42.35
51053;BME280;37093;37.716;-122.060;2022-08-23T09:04:08;99710.86;;;23.50;42.32
51053;BME280;37093;37.716;-122.060;2022-08-23T09:06:48;99708.51;;;23.26;42.21
51053;BME280;37093;37.716;-122.060;2022-08-23T09:09:29;99709.74;;;23.37;42.13
51053;BME280;37093;37.716;-122.060;2022-08-23T09:12:08;99708.31;;;23.35;42.10
51053;BME280;37093;37.716;-122.060;2022-08-23T09:14:50;99706.87;;;23.72;42.20
51053;BME280;37093;37.716;-122.060;2022-08-23T09:17:26;99702.00;;;23.42;42.28
51053;BME280;37093;37.716;-122.060;2022-08-23T09:20:00;99701.47;;;23.15;42.05
51053;BME280;37093;37.716;-122.060;2022-08-23T09:22:34;99699.89;;;23.02;41.98
51053;BME280;37093;37.716;-122.060;2022-08-23T09:25:04;99702.41;;;23.27;41.44
51053;BME280;37093;37.716;-122.060;2022-08-23T09:27:32;99707.01;;;23.56;41.31
51053;BME280;37093;37.716;-122.060;2022-08-23T09:30:02;99699.63;;;23.31;41.35
51053;BME280;37093;37.716;-122.060;2022-08-23T09:32:33;99699.52;;;23.19;41.53
51053;BME280;37093;37.716;-122.060;2022-08-23T09:35:12;99699.03;;;23.58;41.09
51053;BME280;37093;37.716;-122.060;2022-08-23T09:37:56;99695.89;;;23.27;41.16
51053;BME280;37093;37.716;-122.060;2022-08-23T09:40:30;99696.48;;;23.17;41.21
51053;BME280;37093;37.716;-122.060;2022-08-23T09:43:17;99696.33;;;23.34;40.79
51053;BME280;37093;37.716;-122.060;2022-08-23T09:45:58;99696.42;;;23.14;40.76
51053;BME280;37093;37.716;-122.060;2022-08-23T09:48:37;99693.58;;;23.28;41.28
51053;BME280;37093;37.716;-122.060;2022-08-23T09:51:14;99690.58;;;23.07;41.14
51053;BME280;37093;37.716;-122.060;2022-08-23T09:53:46;99685.25;;;23.35;41.12
51053;BME280;37093;37.716;-122.060;2022-08-23T09:56:21;99686.59;;;23.24;41.01
51053;BME280;37093;37.716;-122.060;2022-08-23T09:58:51;99686.40;;;23.43;41.44
51053;BME280;37093;37.716;-122.060;2022-08-23T10:01:22;99686.58;;;23.22;41.11
51053;BME280;37093;37.716;-122.060;2022-08-23T10:04:11;99687.98;;;23.20;41.09
51053;BME280;37093;37.716;-122.060;2022-08-23T10:06:43;99687.81;;;23.22;40.98
51053;BME280;37093;37.716;-122.060;2022-08-23T10:09:24;99683.37;;;23.51;41.09
51053;BME280;37093;37.716;-122.060;2022-08-23T10:11:54;99682.40;;;23.11;41.06
51053;BME280;37093;37.716;-122.060;2022-08-23T10:14:24;99678.71;;;23.16;41.14
51053;BME280;37093;37.716;-122.060;2022-08-23T10:17:02;99676.69;;;23.19;40.92
51053;BME280;37093;37.716;-122.060;2022-08-23T10:19:38;99677.25;;;23.42;40.69
51053;BME280;37093;37.716;-122.060;2022-08-23T10:22:16;99677.92;;;23.22;40.86
51053;BME280;37093;37.716;-122.060;2022-08-23T10:24:51;99673.61;;;23.20;41.02
51053;BME280;37093;37.716;-122.060;2022-08-23T10:27:29;99672.78;;;22.91;40.75
51053;BME280;37093;37.716;-122.060;2022-08-23T10:30:07;99668.29;;;23.14;40.37
51053;BME280;37093;37.716;-122.060;2022-08-23T10:32:48;99662.78;;;22.86;41.29
51053;BME280;37093;37.716;-122.060;2022-08-23T10:35:26;99666.30;;;23.15;40.71
51053;BME280;37093;37.716;-122.060;2022-08-23T10:38:14;99664.20;;;23.13;41.05
51053;BME280;37093;37.716;-122.060;2022-08-23T10:40:57;99659.54;;;23.12;41.05
51053;BME280;37093;37.716;-122.060;2022-08-23T10:43:35;99653.36;;;22.81;41.01
51053;BME280;37093;37.716;-122.060;2022-08-23T10:46:07;99650.99;;;23.20;41.49
51053;BME280;37093;37.716;-122.060;2022-08-23T10:48:37;99652.02;;;22.94;41.39
51053;BME280;37093;37.716;-122.060;2022-08-23T10:51:15;99651.12;;;23.18;41.30
51053;BME280;37093;37.716;-122.060;2022-08-23T10:53:52;99654.05;;;23.20;41.20
51053;BME280;37093;37.716;-122.060;2022-08-23T10:56:22;99651.83;;;23.06;40.88
51053;BME280;37093;37.716;-122.060;2022-08-23T10:58:53;99649.58;;;22.83;41.04
51053;BME280;37093;37.716;-122.060;2022-08-23T11:01:26;99647.10;;;23.34;41.09
51053;BME280;37093;37.716;-122.060;2022-08-23T11:04:02;99643.11;;;23.08;41.16
51053;BME280;37093;37.716;-122.060;2022-08-23T11:06:45;99641.96;;;23.15;40.84
51053;BME280;37093;37.716;-122.060;2022-08-23T11:09:52;99641.04;;;22.89;40.66
51053;BME280;37093;37.716;-122.060;2022-08-23T11:12:25;99641.92;;;23.26;40.55
51053;BME280;37093;37.716;-122.060;2022-08-23T11:15:12;99639.31;;;23.22;40.80
51053;BME280;37093;37.716;-122.060;2022-08-23T11:17:57;99637.01;;;23.18;41.20
51053;BME280;37093;37.716;-122.060;2022-08-23T11:21:44;99642.05;;;23.09;41.07
51053;BME280;37093;37.716;-122.060;2022-08-23T11:25:42;99643.36;;;22.96;41.42
51053;BME280;37093;37.716;-122.060;2022-08-23T11:28:45;99641.69;;;23.05;41.69
51053;BME280;37093;37.716;-122.060;2022-08-23T11:31:22;99642.75;;;22.98;41.73
51053;BME280;37093;37.716;-122.060;2022-08-23T11:34:00;99642.92;;;22.49;41.41
51053;BME280;37093;37.716;-122.060;2022-08-23T11:36:32;99637.05;;;22.97;41.73
51053;BME280;37093;37.716;-122.060;2022-08-23T11:39:06;99635.70;;;22.79;41.68
51053;BME280;37093;37.716;-122.060;2022-08-23T11:41:35;99634.98;;;22.61;42.10
51053;BME280;37093;37.716;-122.060;2022-08-23T11:44:32;99632.86;;;22.63;42.25
51053;BME280;37093;37.716;-122.060;2022-08-23T11:47:05;99630.07;;;22.67;42.12
51053;BME280;37093;37.716;-122.060;2022-08-23T11:49:55;99631.47;;;22.50;42.39
51053;BME280;37093;37.716;-122.060;2022-08-23T11:52:59;99629.79;;;22.66;42.98
51053;BME280;37093;37.716;-122.060;2022-08-23T11:55:52;99628.97;;;22.35;43.00
51053;BME280;37093;37.716;-122.060;2022-08-23T11:58:31;99629.89;;;22.15;43.32
51053;BME280;37093;37.716;-122.060;2022-08-23T12:01:06;99628.88;;;22.42;43.63
51053;BME280;37093;37.716;-122.060;2022-08-23T12:03:51;99623.99;;;22.66;43.32
51053;BME280;37093;37.716;-122.060;2022-08-23T12:06:44;99618.89;;;22.19;43.30
51053;BME280;37093;37.716;-122.060;2022-08-23T12:09:50;99617.36;;;22.25;43.17
51053;BME280;37093;37.716;-122.060;2022-08-23T12:12:27;99617.16;;;22.37;42.93
51053;BME280;37093;37.716;-122.060;2022-08-23T12:14:58;99616.95;;;22.34;42.57
51053;BME280;37093;37.716;-122.060;2022-08-23T12:18:43;99611.86;;;22.75;42.79
51053;BME280;37093;37.716;-122.060;2022-08-23T12:21:21;99612.41;;;22.30;42.83
51053;BME280;37093;37.716;-122.060;2022-08-23T12:23:53;99609.15;;;22.67;42.48
51053;BME280;37093;37.716;-122.060;2022-08-23T12:26:27;99608.04;;;22.49;42.46
51053;BME280;37093;37.716;-122.060;2022-08-23T12:29:03;99602.87;;;22.55;42.51
51053;BME280;37093;37.716;-122.060;2022-08-23T12:31:43;99601.40;;;22.87;42.38
51053;BME280;37093;37.716;-122.060;2022-08-23T12:34:24;99601.50;;;22.55;42.01
51053;BME280;37093;37.716;-122.060;2022-08-23T12:37:03;99602.38;;;22.58;42.19
51053;BME280;37093;37.716;-122.060;2022-08-23T12:39:36;99600.32;;;22.62;42.05
51053;BME280;37093;37.716;-122.060;2022-08-23T12:42:10;99596.76;;;22.67;42.37
51053;BME280;37093;37.716;-122.060;2022-08-23T12:44:40;99596.25;;;22.67;42.19
51053;BME280;37093;37.716;-122.060;2022-08-23T12:47:13;99596.37;;;22.65;42.33
51053;BME280;37093;37.716;-122.060;2022-08-23T12:49:54;99595.13;;;22.66;42.38
51053;BME280;37093;37.716;-122.060;2022-08-23T12:52:25;99595.62;;;22.34;42.45
51053;BME280;37093;37.716;-122.060;2022-08-23T12:54:53;99592.16;;;22.58;42.37
51053;BME280;37093;37.716;-122.060;2022-08-23T12:57:31;99590.12;;;22.55;42.58
51053;BME280;37093;37.716;-122.060;2022-08-23T13:00:09;99590.16;;;22.57;42.77